sensor_id;sensor_type;location;lat;lon;timestamp;P1;durP1;ratioP1;P2;durP2;ratioP2
12476;SDS011;6303;51.504;6.300;2023-03-23T00:01:02;0.90;;;0.90;;
12476;SDS011;6303;51.504;6.300;2023-03-23T00:03:30;1.45;;;1.10;;
12476;SDS011;6303;51.504;6.300;2023-03-23T00:05:57;0.90;;;0.90;;
12476;SDS011;6303;51.504;6.300;2023-03-23T00:08:30;2.08;;;1.00;;
12476;SDS011;6303;51.504;6.300;2023-03-23T00:10:57;1.48;;;1.00;;
12476;SDS011;6303;51.504;6.300;2023-03-23T00:13:27;1.23;;;1.13;;
12476;SDS011;6303;51.504;6.300;2023-03-23T00:15:56;2.08;;;1.10;;
12476;SDS011;6303;51.504;6.300;2023-03-23T00:18:23;1.13;;;0.90;;
12476;SDS011;6303;51.504;6.300;2023-03-23T00:20:51;1.00;;;1.00;;
12476;SDS011;6303;51.504;6.300;2023-03-23T00:23:19;1.10;;;1.00;;
12476;SDS011;6303;51.504;6.300;2023-03-23T00:25:48;2.05;;;1.08;;
12476;SDS011;6303;51.504;6.300;2023-03-23T00:28:18;1.17;;;1.02;;
12476;SDS011;6303;51.504;6.300;2023-03-23T00:30:53;2.28;;;1.25;;
12476;SDS011;6303;51.504;6.300;2023-03-23T00:33:23;2.03;;;1.02;;
12476;SDS011;6303;51.504;6.300;2023-03-23T00:35:51;1.10;;;0.95;;
12476;SDS011;6303;51.504;6.300;2023-03-23T00:38:19;1.83;;;1.00;;
12476;SDS011;6303;51.504;6.300;2023-03-23T00:40:47;1.00;;;0.90;;
12476;SDS011;6303;51.504;6.300;2023-03-23T00:43:15;1.05;;;1.02;;
12476;SDS011;6303;51.504;6.300;2023-03-23T00:45:44;1.02;;;1.02;;
12476;SDS011;6303;51.504;6.300;2023-03-23T00:48:19;1.60;;;1.00;;
12476;SDS011;6303;51.504;6.300;2023-03-23T00:50:46;1.92;;;1.10;;
12476;SDS011;6303;51.504;6.300;2023-03-23T00:53:14;1.00;;;1.00;;
12476;SDS011;6303;51.504;6.300;2023-03-23T00:55:42;1.27;;;1.10;;
12476;SDS011;6303;51.504;6.300;2023-03-23T00:58:10;1.08;;;0.95;;
12476;SDS011;6303;51.504;6.300;2023-03-23T01:00:37;1.13;;;1.02;;
12476;SDS011;6303;51.504;6.300;2023-03-23T01:03:05;1.02;;;0.90;;
12476;SDS011;6303;51.504;6.300;2023-03-23T01:05:35;1.10;;;0.95;;
12476;SDS011;6303;51.504;6.300;2023-03-23T01:08:03;1.13;;;1.00;;
12476;SDS011;6303;51.504;6.300;2023-03-23T01:10:31;1.92;;;1.20;;
12476;SDS011;6303;51.504;6.300;2023-03-23T01:12:59;1.02;;;0.93;;
12476;SDS011;6303;51.504;6.300;2023-03-23T01:15:27;1.92;;;1.20;;
12476;SDS011;6303;51.504;6.300;2023-03-23T01:17:55;1.10;;;1.00;;
12476;SDS011;6303;51.504;6.300;2023-03-23T01:20:23;1.10;;;1.00;;
12476;SDS011;6303;51.504;6.300;2023-03-23T01:22:53;1.00;;;1.00;;
12476;SDS011;6303;51.504;6.300;2023-03-23T01:25:25;1.23;;;1.05;;
12476;SDS011;6303;51.504;6.300;2023-03-23T01:27:53;1.27;;;1.17;;
12476;SDS011;6303;51.504;6.300;2023-03-23T01:30:21;1.40;;;1.10;;
12476;SDS011;6303;51.504;6.300;2023-03-23T01:32:48;0.93;;;0.93;;
12476;SDS011;6303;51.504;6.300;2023-03-23T01:35:16;1.20;;;1.10;;
12476;SDS011;6303;51.504;6.300;2023-03-23T01:37:44;1.10;;;1.10;;
12476;SDS011;6303;51.504;6.300;2023-03-23T01:40:14;0.90;;;0.90;;
12476;SDS011;6303;51.504;6.300;2023-03-23T01:42:43;1.08;;;1.02;;
12476;SDS011;6303;51.504;6.300;2023-03-23T01:45:23;1.20;;;1.10;;
12476;SDS011;6303;51.504;6.300;2023-03-23T01:48:06;1.40;;;1.23;;
12476;SDS011;6303;51.504;6.300;2023-03-23T01:50:39;0.95;;;0.95;;
12476;SDS011;6303;51.504;6.300;2023-03-23T01:53:10;1.10;;;1.10;;
12476;SDS011;6303;51.504;6.300;2023-03-23T01:55:40;1.00;;;1.00;;
12476;SDS011;6303;51.504;6.300;2023-03-23T01:58:13;2.05;;;1.15;;
12476;SDS011;6303;51.504;6.300;2023-03-23T02:00:42;1.10;;;1.10;;
12476;SDS011;6303;51.504;6.300;2023-03-23T02:03:10;1.20;;;1.10;;
12476;SDS011;6303;51.504;6.300;2023-03-23T02:05:41;1.13;;;1.02;;
12476;SDS011;6303;51.504;6.300;2023-03-23T02:08:14;1.23;;;1.15;;
12476;SDS011;6303;51.504;6.300;2023-03-23T02:10:45;1.15;;;1.10;;
12476;SDS011;6303;51.504;6.300;2023-03-23T02:13:12;0.93;;;0.93;;
12476;SDS011;6303;51.504;6.300;2023-03-23T02:15:45;1.35;;;1.05;;
12476;SDS011;6303;51.504;6.300;2023-03-23T02:18:20;0.90;;;0.90;;
12476;SDS011;6303;51.504;6.300;2023-03-23T02:27:16;1.02;;;0.90;;
12476;SDS011;6303;51.504;6.300;2023-03-23T02:29:58;1.20;;;1.10;;
12476;SDS011;6303;51.504;6.300;2023-03-23T02:32:44;1.23;;;1.00;;
12476;SDS011;6303;51.504;6.300;2023-03-23T02:35:47;1.00;;;1.00;;
12476;SDS011;6303;51.504;6.300;2023-03-23T02:38:20;0.93;;;0.93;;
12476;SDS011;6303;51.504;6.300;2023-03-23T02:40:52;1.33;;;1.23;;
12476;SDS011;6303;51.504;6.300;2023-03-23T02:43:22;1.10;;;1.00;;
12476;SDS011;6303;51.504;6.300;2023-03-23T02:45:52;1.40;;;1.30;;
12476;SDS011;6303;51.504;6.300;2023-03-23T02:48:22;0.90;;;0.90;;
12476;SDS011;6303;51.504;6.300;2023-03-23T02:50:56;0.82;;;0.82;;
12476;SDS011;6303;51.504;6.300;2023-03-23T02:53:25;1.08;;;0.95;;
12476;SDS011;6303;51.504;6.300;2023-03-23T02:55:54;1.10;;;1.10;;
12476;SDS011;6303;51.504;6.300;2023-03-23T02:58:27;1.27;;;1.17;;
12476;SDS011;6303;51.504;6.300;2023-03-23T03:00:56;1.48;;;0.85;;
12476;SDS011;6303;51.504;6.300;2023-03-23T03:03:25;1.20;;;1.10;;
12476;SDS011;6303;51.504;6.300;2023-03-23T03:05:59;1.50;;;1.00;;
12476;SDS011;6303;51.504;6.300;2023-03-23T03:08:36;1.00;;;1.00;;
12476;SDS011;6303;51.504;6.300;2023-03-23T03:11:11;0.90;;;0.90;;
12476;SDS011;6303;51.504;6.300;2023-03-23T03:13:43;1.13;;;1.02;;
12476;SDS011;6303;51.504;6.300;2023-03-23T03:16:16;0.80;;;0.80;;
12476;SDS011;6303;51.504;6.300;2023-03-23T03:18:54;1.05;;;0.90;;
12476;SDS011;6303;51.504;6.300;2023-03-23T03:21:27;0.98;;;0.98;;
12476;SDS011;6303;51.504;6.300;2023-03-23T03:23:59;1.20;;;1.10;;
12476;SDS011;6303;51.504;6.300;2023-03-23T03:26:28;1.23;;;1.05;;
12476;SDS011;6303;51.504;6.300;2023-03-23T03:29:11;1.08;;;1.00;;
12476;SDS011;6303;51.504;6.300;2023-03-23T03:31:43;1.10;;;1.00;;
12476;SDS011;6303;51.504;6.300;2023-03-23T03:34:12;0.80;;;0.80;;
12476;SDS011;6303;51.504;6.300;2023-03-23T03:36:44;0.95;;;0.95;;
12476;SDS011;6303;51.504;6.300;2023-03-23T03:39:14;0.90;;;0.90;;
12476;SDS011;6303;51.504;6.300;2023-03-23T03:41:43;1.05;;;1.05;;
12476;SDS011;6303;51.504;6.300;2023-03-23T03:44:10;1.10;;;1.00;;
12476;SDS011;6303;51.504;6.300;2023-03-23T03:46:37;0.93;;;0.93;;
12476;SDS011;6303;51.504;6.300;2023-03-23T03:49:06;1.00;;;1.00;;
12476;SDS011;6303;51.504;6.300;2023-03-23T03:51:38;0.90;;;0.90;;
12476;SDS011;6303;51.504;6.300;2023-03-23T03:54:09;0.90;;;0.90;;
12476;SDS011;6303;51.504;6.300;2023-03-23T03:56:37;0.93;;;0.93;;
12476;SDS011;6303;51.504;6.300;2023-03-23T03:59:28;0.90;;;0.90;;
12476;SDS011;6303;51.504;6.300;2023-03-23T04:02:14;0.82;;;0.82;;
12476;SDS011;6303;51.504;6.300;2023-03-23T04:04:45;2.15;;;1.00;;
12476;SDS011;6303;51.504;6.300;2023-03-23T04:07:12;0.93;;;0.93;;
12476;SDS011;6303;51.504;6.300;2023-03-23T04:09:43;1.30;;;1.20;;
12476;SDS011;6303;51.504;6.300;2023-03-23T04:12:14;0.90;;;0.90;;
12476;SDS011;6303;51.504;6.300;2023-03-23T04:14:54;1.00;;;1.00;;
12476;SDS011;6303;51.504;6.300;2023-03-23T04:17:24;0.93;;;0.93;;
12476;SDS011;6303;51.504;6.300;2023-03-23T04:19:52;1.17;;;1.10;;
12476;SDS011;6303;51.504;6.300;2023-03-23T04:22:22;1.17;;;1.08;;
12476;SDS011;6303;51.504;6.300;2023-03-23T04:24:58;0.90;;;0.90;;
12476;SDS011;6303;51.504;6.300;2023-03-23T04:27:28;0.88;;;0.88;;
12476;SDS011;6303;51.504;6.300;2023-03-23T04:29:58;0.90;;;0.90;;
12476;SDS011;6303;51.504;6.300;2023-03-23T04:32:51;1.13;;;1.02;;
12476;SDS011;6303;51.504;6.300;2023-03-23T04:35:22;0.90;;;0.90;;
12476;SDS011;6303;51.504;6.300;2023-03-23T04:38:02;0.90;;;0.90;;
12476;SDS011;6303;51.504;6.300;2023-03-23T04:40:30;0.90;;;0.90;;
12476;SDS011;6303;51.504;6.300;2023-03-23T04:43:08;0.85;;;0.85;;
12476;SDS011;6303;51.504;6.300;2023-03-23T04:45:56;0.93;;;0.93;;
12476;SDS011;6303;51.504;6.300;2023-03-23T04:48:27;0.80;;;0.80;;
12476;SDS011;6303;51.504;6.300;2023-03-23T04:51:11;1.00;;;1.00;;
12476;SDS011;6303;51.504;6.300;2023-03-23T04:53:40;1.10;;;1.00;;
12476;SDS011;6303;51.504;6.300;2023-03-23T04:56:08;0.80;;;0.80;;
12476;SDS011;6303;51.504;6.300;2023-03-23T04:58:42;1.02;;;1.00;;
12476;SDS011;6303;51.504;6.300;2023-03-23T05:01:32;1.10;;;1.00;;
12476;SDS011;6303;51.504;6.300;2023-03-23T05:04:14;1.15;;;1.15;;
12476;SDS011;6303;51.504;6.300;2023-03-23T05:06:43;1.50;;;1.17;;
12476;SDS011;6303;51.504;6.300;2023-03-23T05:09:17;1.30;;;1.20;;
12476;SDS011;6303;51.504;6.300;2023-03-23T05:11:48;0.90;;;0.90;;
12476;SDS011;6303;51.504;6.300;2023-03-23T05:14:15;0.98;;;0.90;;
12476;SDS011;6303;51.504;6.300;2023-03-23T05:16:48;0.90;;;0.90;;
12476;SDS011;6303;51.504;6.300;2023-03-23T05:19:18;1.00;;;0.93;;
12476;SDS011;6303;51.504;6.300;2023-03-23T05:21:45;0.90;;;0.90;;
12476;SDS011;6303;51.504;6.300;2023-03-23T05:24:12;0.82;;;0.82;;
12476;SDS011;6303;51.504;6.300;2023-03-23T05:26:40;1.13;;;0.88;;
12476;SDS011;6303;51.504;6.300;2023-03-23T05:29:18;1.00;;;1.00;;
12476;SDS011;6303;51.504;6.300;2023-03-23T05:31:55;1.08;;;1.08;;
12476;SDS011;6303;51.504;6.300;2023-03-23T05:34:24;0.88;;;0.88;;
12476;SDS011;6303;51.504;6.300;2023-03-23T05:36:56;0.95;;;0.95;;
12476;SDS011;6303;51.504;6.300;2023-03-23T05:39:27;1.05;;;1.00;;
12476;SDS011;6303;51.504;6.300;2023-03-23T05:42:07;1.38;;;1.00;;
12476;SDS011;6303;51.504;6.300;2023-03-23T05:44:54;0.90;;;0.90;;
12476;SDS011;6303;51.504;6.300;2023-03-23T05:47:21;1.00;;;1.00;;
12476;SDS011;6303;51.504;6.300;2023-03-23T05:49:54;1.20;;;1.10;;
12476;SDS011;6303;51.504;6.300;2023-03-23T05:52:23;0.82;;;0.82;;
12476;SDS011;6303;51.504;6.300;2023-03-23T05:54:52;0.90;;;0.90;;
12476;SDS011;6303;51.504;6.300;2023-03-23T05:57:20;0.98;;;0.93;;
12476;SDS011;6303;51.504;6.300;2023-03-23T06:00:02;1.00;;;1.00;;
12476;SDS011;6303;51.504;6.300;2023-03-23T06:02:38;1.13;;;1.02;;
12476;SDS011;6303;51.504;6.300;2023-03-23T06:05:10;1.40;;;1.20;;
12476;SDS011;6303;51.504;6.300;2023-03-23T06:07:39;3.63;;;1.70;;
12476;SDS011;6303;51.504;6.300;2023-03-23T06:10:07;5.78;;;1.80;;
12476;SDS011;6303;51.504;6.300;2023-03-23T06:12:41;7.35;;;2.25;;
12476;SDS011;6303;51.504;6.300;2023-03-23T06:15:10;8.55;;;2.72;;
12476;SDS011;6303;51.504;6.300;2023-03-23T06:18:16;12.38;;;2.40;;
12476;SDS011;6303;51.504;6.300;2023-03-23T06:21:08;4.78;;;1.92;;
12476;SDS011;6303;51.504;6.300;2023-03-23T06:23:56;4.68;;;1.85;;
12476;SDS011;6303;51.504;6.300;2023-03-23T06:26:28;5.72;;;1.88;;
12476;SDS011;6303;51.504;6.300;2023-03-23T06:28:59;5.85;;;1.95;;
12476;SDS011;6303;51.504;6.300;2023-03-23T06:31:31;8.27;;;1.98;;
12476;SDS011;6303;51.504;6.300;2023-03-23T06:34:01;3.50;;;1.70;;
12476;SDS011;6303;51.504;6.300;2023-03-23T06:36:47;5.65;;;2.15;;
12476;SDS011;6303;51.504;6.300;2023-03-23T06:39:18;2.97;;;1.50;;
12476;SDS011;6303;51.504;6.300;2023-03-23T06:41:58;4.90;;;1.52;;
12476;SDS011;6303;51.504;6.300;2023-03-23T06:44:29;3.17;;;1.55;;
12476;SDS011;6303;51.504;6.300;2023-03-23T06:46:57;2.05;;;1.35;;
12476;SDS011;6303;51.504;6.300;2023-03-23T06:49:28;2.13;;;1.58;;
12476;SDS011;6303;51.504;6.300;2023-03-23T06:52:04;2.58;;;1.40;;
12476;SDS011;6303;51.504;6.300;2023-03-23T06:54:32;3.90;;;1.73;;
12476;SDS011;6303;51.504;6.300;2023-03-23T06:57:01;2.85;;;1.30;;
12476;SDS011;6303;51.504;6.300;2023-03-23T06:59:28;3.50;;;1.58;;
12476;SDS011;6303;51.504;6.300;2023-03-23T07:01:57;2.83;;;1.50;;
12476;SDS011;6303;51.504;6.300;2023-03-23T07:04:24;3.90;;;1.45;;
12476;SDS011;6303;51.504;6.300;2023-03-23T07:07:14;3.42;;;1.33;;
12476;SDS011;6303;51.504;6.300;2023-03-23T07:10:09;2.80;;;1.33;;
12476;SDS011;6303;51.504;6.300;2023-03-23T07:12:38;2.25;;;1.10;;
12476;SDS011;6303;51.504;6.300;2023-03-23T07:15:07;2.45;;;1.40;;
12476;SDS011;6303;51.504;6.300;2023-03-23T07:17:39;4.95;;;1.55;;
12476;SDS011;6303;51.504;6.300;2023-03-23T07:20:15;2.33;;;1.50;;
12476;SDS011;6303;51.504;6.300;2023-03-23T07:22:42;2.17;;;1.35;;
12476;SDS011;6303;51.504;6.300;2023-03-23T07:25:20;2.25;;;1.40;;
12476;SDS011;6303;51.504;6.300;2023-03-23T07:27:50;1.80;;;1.05;;
12476;SDS011;6303;51.504;6.300;2023-03-23T07:30:17;1.35;;;1.20;;
12476;SDS011;6303;51.504;6.300;2023-03-23T07:32:47;2.15;;;1.40;;
12476;SDS011;6303;51.504;6.300;2023-03-23T07:35:14;1.77;;;1.20;;
12476;SDS011;6303;51.504;6.300;2023-03-23T07:37:59;2.60;;;1.20;;
12476;SDS011;6303;51.504;6.300;2023-03-23T07:40:27;1.88;;;1.10;;
12476;SDS011;6303;51.504;6.300;2023-03-23T07:43:01;2.45;;;1.23;;
12476;SDS011;6303;51.504;6.300;2023-03-23T07:46:07;1.67;;;1.20;;
12476;SDS011;6303;51.504;6.300;2023-03-23T07:49:03;1.67;;;1.20;;
12476;SDS011;6303;51.504;6.300;2023-03-23T07:51:36;2.65;;;1.15;;
12476;SDS011;6303;51.504;6.300;2023-03-23T07:54:06;3.00;;;1.17;;
12476;SDS011;6303;51.504;6.300;2023-03-23T07:56:52;1.15;;;1.02;;
12476;SDS011;6303;51.504;6.300;2023-03-23T07:59:26;1.70;;;1.20;;
12476;SDS011;6303;51.504;6.300;2023-03-23T08:01:56;1.52;;;1.10;;
12476;SDS011;6303;51.504;6.300;2023-03-23T08:04:31;2.72;;;1.30;;
12476;SDS011;6303;51.504;6.300;2023-03-23T08:07:25;2.55;;;1.15;;
12476;SDS011;6303;51.504;6.300;2023-03-23T08:10:01;1.75;;;1.23;;
12476;SDS011;6303;51.504;6.300;2023-03-23T08:12:57;1.77;;;1.17;;
12476;SDS011;6303;51.504;6.300;2023-03-23T08:15:48;1.33;;;1.10;;
12476;SDS011;6303;51.504;6.300;2023-03-23T08:18:39;2.33;;;1.52;;
12476;SDS011;6303;51.504;6.300;2023-03-23T08:21:37;1.63;;;1.15;;
12476;SDS011;6303;51.504;6.300;2023-03-23T08:24:22;1.45;;;1.10;;
12476;SDS011;6303;51.504;6.300;2023-03-23T08:27:00;2.33;;;1.10;;
12476;SDS011;6303;51.504;6.300;2023-03-23T08:29:46;2.05;;;1.13;;
12476;SDS011;6303;51.504;6.300;2023-03-23T08:32:43;2.28;;;1.13;;
12476;SDS011;6303;51.504;6.300;2023-03-23T08:35:33;1.35;;;1.00;;
12476;SDS011;6303;51.504;6.300;2023-03-23T08:38:34;1.90;;;1.17;;
12476;SDS011;6303;51.504;6.300;2023-03-23T08:41:08;1.30;;;0.90;;
12476;SDS011;6303;51.504;6.300;2023-03-23T08:44:09;1.77;;;1.00;;
12476;SDS011;6303;51.504;6.300;2023-03-23T08:46:55;0.98;;;0.98;;
12476;SDS011;6303;51.504;6.300;2023-03-23T08:50:01;2.00;;;0.82;;
12476;SDS011;6303;51.504;6.300;2023-03-23T08:52:48;1.02;;;0.93;;
12476;SDS011;6303;51.504;6.300;2023-03-23T08:55:32;1.42;;;1.10;;
12476;SDS011;6303;51.504;6.300;2023-03-23T08:58:20;1.50;;;0.95;;
12476;SDS011;6303;51.504;6.300;2023-03-23T09:01:19;1.00;;;0.90;;
12476;SDS011;6303;51.504;6.300;2023-03-23T09:04:01;1.23;;;0.80;;
12476;SDS011;6303;51.504;6.300;2023-03-23T09:06:46;1.52;;;0.93;;
12476;SDS011;6303;51.504;6.300;2023-03-23T09:09:13;1.65;;;0.90;;
12476;SDS011;6303;51.504;6.300;2023-03-23T09:11:42;1.48;;;1.00;;
12476;SDS011;6303;51.504;6.300;2023-03-23T09:14:10;0.82;;;0.82;;
12476;SDS011;6303;51.504;6.300;2023-03-23T09:16:37;1.50;;;0.90;;
12476;SDS011;6303;51.504;6.300;2023-03-23T09:19:05;0.98;;;0.90;;
12476;SDS011;6303;51.504;6.300;2023-03-23T09:21:34;1.60;;;0.90;;
12476;SDS011;6303;51.504;6.300;2023-03-23T09:24:01;2.20;;;0.90;;
12476;SDS011;6303;51.504;6.300;2023-03-23T09:26:30;1.85;;;1.02;;
12476;SDS011;6303;51.504;6.300;2023-03-23T09:28:59;1.98;;;0.90;;
12476;SDS011;6303;51.504;6.300;2023-03-23T09:31:25;1.63;;;1.00;;
12476;SDS011;6303;51.504;6.300;2023-03-23T09:33:53;1.00;;;0.90;;
12476;SDS011;6303;51.504;6.300;2023-03-23T09:36:22;2.55;;;1.17;;
12476;SDS011;6303;51.504;6.300;2023-03-23T09:38:51;0.95;;;0.80;;
12476;SDS011;6303;51.504;6.300;2023-03-23T09:41:32;1.30;;;0.90;;
12476;SDS011;6303;51.504;6.300;2023-03-23T09:44:12;0.82;;;0.73;;
12476;SDS011;6303;51.504;6.300;2023-03-23T09:46:50;0.82;;;0.82;;
12476;SDS011;6303;51.504;6.300;2023-03-23T09:49:24;1.13;;;1.00;;
12476;SDS011;6303;51.504;6.300;2023-03-23T09:51:55;1.15;;;0.98;;
12476;SDS011;6303;51.504;6.300;2023-03-23T09:54:26;1.25;;;0.75;;
12476;SDS011;6303;51.504;6.300;2023-03-23T09:56:55;0.82;;;0.80;;
12476;SDS011;6303;51.504;6.300;2023-03-23T09:59:27;0.88;;;0.82;;
12476;SDS011;6303;51.504;6.300;2023-03-23T10:01:58;0.70;;;0.70;;
12476;SDS011;6303;51.504;6.300;2023-03-23T10:04:32;0.93;;;0.90;;
12476;SDS011;6303;51.504;6.300;2023-03-23T10:07:08;0.98;;;0.82;;
12476;SDS011;6303;51.504;6.300;2023-03-23T10:09:37;1.35;;;1.00;;
12476;SDS011;6303;51.504;6.300;2023-03-23T10:12:07;1.10;;;1.00;;
12476;SDS011;6303;51.504;6.300;2023-03-23T10:14:50;0.75;;;0.75;;
12476;SDS011;6303;51.504;6.300;2023-03-23T10:17:26;1.58;;;0.90;;
12476;SDS011;6303;51.504;6.300;2023-03-23T10:19:57;1.08;;;0.82;;
12476;SDS011;6303;51.504;6.300;2023-03-23T10:22:34;1.73;;;0.90;;
12476;SDS011;6303;51.504;6.300;2023-03-23T10:25:11;1.95;;;0.75;;
12476;SDS011;6303;51.504;6.300;2023-03-23T10:27:44;1.08;;;0.90;;
12476;SDS011;6303;51.504;6.300;2023-03-23T10:30:19;3.40;;;1.10;;
12476;SDS011;6303;51.504;6.300;2023-03-23T10:32:51;1.52;;;0.90;;
12476;SDS011;6303;51.504;6.300;2023-03-23T10:35:25;2.00;;;0.90;;
12476;SDS011;6303;51.504;6.300;2023-03-23T10:37:58;1.27;;;1.10;;
12476;SDS011;6303;51.504;6.300;2023-03-23T10:40:29;2.10;;;1.10;;
12476;SDS011;6303;51.504;6.300;2023-03-23T10:42:58;1.80;;;1.00;;
12476;SDS011;6303;51.504;6.300;2023-03-23T10:45:28;1.60;;;0.90;;
12476;SDS011;6303;51.504;6.300;2023-03-23T10:48:03;3.83;;;0.90;;
12476;SDS011;6303;51.504;6.300;2023-03-23T10:50:37;2.88;;;1.00;;
12476;SDS011;6303;51.504;6.300;2023-03-23T10:53:11;2.35;;;1.10;;
12476;SDS011;6303;51.504;6.300;2023-03-23T10:55:44;2.53;;;1.10;;
12476;SDS011;6303;51.504;6.300;2023-03-23T10:58:12;2.78;;;1.00;;
12476;SDS011;6303;51.504;6.300;2023-03-23T11:00:51;1.00;;;0.90;;
12476;SDS011;6303;51.504;6.300;2023-03-23T11:03:27;2.30;;;0.90;;
12476;SDS011;6303;51.504;6.300;2023-03-23T11:06:05;1.63;;;0.90;;
12476;SDS011;6303;51.504;6.300;2023-03-23T11:08:34;0.95;;;0.88;;
12476;SDS011;6303;51.504;6.300;2023-03-23T11:11:09;1.48;;;0.80;;
12476;SDS011;6303;51.504;6.300;2023-03-23T11:13:39;1.05;;;0.80;;
12476;SDS011;6303;51.504;6.300;2023-03-23T11:16:21;0.80;;;0.75;;
12476;SDS011;6303;51.504;6.300;2023-03-23T11:18:49;1.23;;;0.88;;
12476;SDS011;6303;51.504;6.300;2023-03-23T11:21:17;1.50;;;0.80;;
12476;SDS011;6303;51.504;6.300;2023-03-23T11:23:48;0.88;;;0.88;;
12476;SDS011;6303;51.504;6.300;2023-03-23T11:26:17;1.27;;;1.02;;
12476;SDS011;6303;51.504;6.300;2023-03-23T11:28:50;1.75;;;1.08;;
12476;SDS011;6303;51.504;6.300;2023-03-23T11:31:22;2.05;;;0.90;;
12476;SDS011;6303;51.504;6.300;2023-03-23T11:33:55;0.90;;;0.90;;
12476;SDS011;6303;51.504;6.300;2023-03-23T11:36:29;0.95;;;0.70;;
12476;SDS011;6303;51.504;6.300;2023-03-23T11:38:57;1.27;;;0.90;;
12476;SDS011;6303;51.504;6.300;2023-03-23T11:41:28;1.33;;;0.90;;
12476;SDS011;6303;51.504;6.300;2023-03-23T11:44:01;1.20;;;0.77;;
12476;SDS011;6303;51.504;6.300;2023-03-23T11:46:38;1.40;;;1.00;;
12476;SDS011;6303;51.504;6.300;2023-03-23T11:49:12;3.58;;;0.90;;
12476;SDS011;6303;51.504;6.300;2023-03-23T11:51:45;1.80;;;0.88;;
12476;SDS011;6303;51.504;6.300;2023-03-23T11:54:16;1.10;;;1.00;;
12476;SDS011;6303;51.504;6.300;2023-03-23T11:56:48;2.13;;;0.93;;
12476;SDS011;6303;51.504;6.300;2023-03-23T11:59:16;1.15;;;0.73;;
12476;SDS011;6303;51.504;6.300;2023-03-23T12:01:50;0.77;;;0.77;;
12476;SDS011;6303;51.504;6.300;2023-03-23T12:07:14;0.70;;;0.60;;
12476;SDS011;6303;51.504;6.300;2023-03-23T12:09:54;0.88;;;0.88;;
12476;SDS011;6303;51.504;6.300;2023-03-23T12:12:31;0.60;;;0.60;;
12476;SDS011;6303;51.504;6.300;2023-03-23T12:15:05;1.45;;;0.77;;
12476;SDS011;6303;51.504;6.300;2023-03-23T12:17:43;1.70;;;0.90;;
12476;SDS011;6303;51.504;6.300;2023-03-23T12:20:20;1.88;;;0.75;;
12476;SDS011;6303;51.504;6.300;2023-03-23T12:23:03;1.83;;;0.70;;
12476;SDS011;6303;51.504;6.300;2023-03-23T12:25:43;1.98;;;0.70;;
12476;SDS011;6303;51.504;6.300;2023-03-23T12:28:32;0.88;;;0.80;;
12476;SDS011;6303;51.504;6.300;2023-03-23T12:31:07;1.23;;;0.65;;
12476;SDS011;6303;51.504;6.300;2023-03-23T12:33:45;1.27;;;0.90;;
12476;SDS011;6303;51.504;6.300;2023-03-23T12:36:26;1.08;;;0.82;;
12476;SDS011;6303;51.504;6.300;2023-03-23T12:39:12;1.15;;;0.80;;
12476;SDS011;6303;51.504;6.300;2023-03-23T12:41:57;1.70;;;0.80;;
12476;SDS011;6303;51.504;6.300;2023-03-23T12:44:32;1.33;;;0.82;;
12476;SDS011;6303;51.504;6.300;2023-03-23T12:47:16;2.58;;;0.70;;
12476;SDS011;6303;51.504;6.300;2023-03-23T12:49:58;1.70;;;0.60;;
12476;SDS011;6303;51.504;6.300;2023-03-23T12:52:30;2.30;;;0.70;;
12476;SDS011;6303;51.504;6.300;2023-03-23T12:55:05;1.80;;;0.93;;
12476;SDS011;6303;51.504;6.300;2023-03-23T12:57:41;0.93;;;0.73;;
12476;SDS011;6303;51.504;6.300;2023-03-23T13:00:14;1.00;;;0.70;;
12476;SDS011;6303;51.504;6.300;2023-03-23T13:02:47;1.23;;;0.80;;
12476;SDS011;6303;51.504;6.300;2023-03-23T13:05:29;1.40;;;0.80;;
12476;SDS011;6303;51.504;6.300;2023-03-23T13:08:04;1.85;;;0.88;;
12476;SDS011;6303;51.504;6.300;2023-03-23T13:10:38;1.15;;;0.90;;
12476;SDS011;6303;51.504;6.300;2023-03-23T13:13:12;1.40;;;1.02;;
12476;SDS011;6303;51.504;6.300;2023-03-23T13:15:44;1.23;;;0.60;;
12476;SDS011;6303;51.504;6.300;2023-03-23T13:18:24;0.80;;;0.77;;
12476;SDS011;6303;51.504;6.300;2023-03-23T13:21:04;0.80;;;0.75;;
12476;SDS011;6303;51.504;6.300;2023-03-23T13:23:35;1.33;;;0.95;;
12476;SDS011;6303;51.504;6.300;2023-03-23T13:26:06;1.23;;;0.70;;
12476;SDS011;6303;51.504;6.300;2023-03-23T13:28:47;0.93;;;0.70;;
12476;SDS011;6303;51.504;6.300;2023-03-23T13:31:20;1.02;;;0.90;;
12476;SDS011;6303;51.504;6.300;2023-03-23T13:33:51;0.73;;;0.70;;
12476;SDS011;6303;51.504;6.300;2023-03-23T13:36:26;0.73;;;0.70;;
12476;SDS011;6303;51.504;6.300;2023-03-23T13:38:57;1.23;;;1.00;;
12476;SDS011;6303;51.504;6.300;2023-03-23T13:41:25;1.00;;;0.90;;
12476;SDS011;6303;51.504;6.300;2023-03-23T13:44:04;0.60;;;0.60;;
12476;SDS011;6303;51.504;6.300;2023-03-23T13:46:41;0.63;;;0.60;;
12476;SDS011;6303;51.504;6.300;2023-03-23T13:49:20;1.25;;;0.80;;
12476;SDS011;6303;51.504;6.300;2023-03-23T13:52:06;1.40;;;0.85;;
12476;SDS011;6303;51.504;6.300;2023-03-23T13:54:44;1.48;;;0.70;;
12476;SDS011;6303;51.504;6.300;2023-03-23T13:57:21;0.73;;;0.73;;
12476;SDS011;6303;51.504;6.300;2023-03-23T13:59:57;0.80;;;0.80;;
12476;SDS011;6303;51.504;6.300;2023-03-23T14:02:33;1.02;;;0.80;;
12476;SDS011;6303;51.504;6.300;2023-03-23T14:07:57;1.88;;;0.82;;
12476;SDS011;6303;51.504;6.300;2023-03-23T14:10:31;0.80;;;0.80;;
12476;SDS011;6303;51.504;6.300;2023-03-23T14:13:03;1.92;;;1.05;;
12476;SDS011;6303;51.504;6.300;2023-03-23T14:15:40;1.52;;;0.90;;
12476;SDS011;6303;51.504;6.300;2023-03-23T14:18:13;2.00;;;0.90;;
12476;SDS011;6303;51.504;6.300;2023-03-23T14:20:42;2.25;;;0.80;;
12476;SDS011;6303;51.504;6.300;2023-03-23T14:23:16;2.88;;;1.10;;
12476;SDS011;6303;51.504;6.300;2023-03-23T14:25:44;1.20;;;0.85;;
12476;SDS011;6303;51.504;6.300;2023-03-23T14:28:20;1.10;;;0.93;;
12476;SDS011;6303;51.504;6.300;2023-03-23T14:30:48;0.88;;;0.80;;
12476;SDS011;6303;51.504;6.300;2023-03-23T14:33:22;0.80;;;0.80;;
12476;SDS011;6303;51.504;6.300;2023-03-23T14:35:52;0.68;;;0.68;;
12476;SDS011;6303;51.504;6.300;2023-03-23T14:38:21;1.63;;;0.77;;
12476;SDS011;6303;51.504;6.300;2023-03-23T14:40:54;1.85;;;0.80;;
12476;SDS011;6303;51.504;6.300;2023-03-23T14:43:25;1.50;;;1.02;;
12476;SDS011;6303;51.504;6.300;2023-03-23T14:45:54;1.00;;;0.80;;
12476;SDS011;6303;51.504;6.300;2023-03-23T14:48:22;2.25;;;0.90;;
12476;SDS011;6303;51.504;6.300;2023-03-23T14:50:50;0.73;;;0.73;;
12476;SDS011;6303;51.504;6.300;2023-03-23T14:53:21;0.77;;;0.60;;
12476;SDS011;6303;51.504;6.300;2023-03-23T14:55:50;0.80;;;0.80;;
12476;SDS011;6303;51.504;6.300;2023-03-23T14:58:19;1.15;;;0.80;;
12476;SDS011;6303;51.504;6.300;2023-03-23T15:00:49;1.95;;;0.93;;
12476;SDS011;6303;51.504;6.300;2023-03-23T15:03:21;1.52;;;0.80;;
12476;SDS011;6303;51.504;6.300;2023-03-23T15:05:50;1.13;;;0.95;;
12476;SDS011;6303;51.504;6.300;2023-03-23T15:08:22;0.93;;;0.88;;
12476;SDS011;6303;51.504;6.300;2023-03-23T15:10:58;0.88;;;0.70;;
12476;SDS011;6303;51.504;6.300;2023-03-23T15:13:31;1.98;;;0.90;;
12476;SDS011;6303;51.504;6.300;2023-03-23T15:16:02;1.23;;;0.98;;
12476;SDS011;6303;51.504;6.300;2023-03-23T15:18:32;1.80;;;1.00;;
12476;SDS011;6303;51.504;6.300;2023-03-23T15:21:09;0.82;;;0.82;;
12476;SDS011;6303;51.504;6.300;2023-03-23T15:23:42;1.20;;;1.10;;
12476;SDS011;6303;51.504;6.300;2023-03-23T15:29:03;1.35;;;0.80;;
12476;SDS011;6303;51.504;6.300;2023-03-23T15:31:39;1.35;;;0.75;;
12476;SDS011;6303;51.504;6.300;2023-03-23T15:34:10;1.23;;;1.00;;
12476;SDS011;6303;51.504;6.300;2023-03-23T15:36:41;1.25;;;0.98;;
12476;SDS011;6303;51.504;6.300;2023-03-23T15:39:11;1.00;;;0.88;;
12476;SDS011;6303;51.504;6.300;2023-03-23T15:41:45;0.90;;;0.80;;
12476;SDS011;6303;51.504;6.300;2023-03-23T15:44:20;0.70;;;0.70;;
12476;SDS011;6303;51.504;6.300;2023-03-23T15:46:51;0.80;;;0.80;;
12476;SDS011;6303;51.504;6.300;2023-03-23T15:49:19;0.95;;;0.90;;
12476;SDS011;6303;51.504;6.300;2023-03-23T15:51:51;1.40;;;1.00;;
12476;SDS011;6303;51.504;6.300;2023-03-23T15:54:19;0.82;;;0.80;;
12476;SDS011;6303;51.504;6.300;2023-03-23T15:56:46;1.65;;;1.00;;